LEAMLXGB

Guest
Details From LEAM - Almeria
To LXGB - Gibraltar
Flight Number -
Tags generated
Created
Modified
Stats Distance 158 nm / 293 km
Max Altitude 12,200 ft / 3,719 m
Waypoints 4
Social Downloads 12
Likes 0
Share VATSIM

Download

Looking for another format? Having issues loading an existing format? Contact us
Advertisement - Login to hide

Notes

Basic altitude profile: - Ascent Rate: 2500ft/min - Ascent Speed: 250kts - Cruise Altitude: 35000ft - Cruise Speed: 420kts - Descent Rate: 1500ft/min - Descent Speed: 250kts Options: - Use NATs: yes - Use PACOTS: yes - Use low airways: yes - Use high airways: yes

Route

LEAM ADRAS A44 MGA LXGB

ID Type Via Altitude Latitude Longitude Leg Dist Tot Dist Heading (true) Name
O LEAM APT - 0 ft / 0 m 36.84393˚ -2.37010˚ - 0 nm - Almeria
ADRAS FIX - 6,100 ft / 1,859 m 36.83216˚ -2.72753˚ 17 nm 17 nm 268° / 268° -
MGA VOR A44 (AWY-LO) 12,200 ft / 3,719 m 36.81431˚ -4.36952˚ 78 nm 96 nm 270° / 269° MALAGA VOR-DME
O LXGB APT - 0 ft / 0 m 36.15121˚ -5.34966˚ 61 nm 157 nm 230° / 230° Gibraltar

Altitude Profile

Advertisement - Login to hide

LEAM

Details ICAO LEAM (LEI)
Name Almeria
Region Spain
Timezone Unknown (UTC+0.0)
Stats Elevation 70 ft / 21 m (AMSL)
Location 36.843935° -2.370097°
Runways 1
Magnetic Variation 0.288° W

METAR

LEAM 130500Z 33015KT CAVOK 07/M02 Q1026

Decode

TAF

TAF LEAM 130200Z 1303/1403 02006KT CAVOK TX15/1314Z TN06/1307Z BECMG 1312/1314 22010KT

Decode

Departure Runways

ID Width Length Bearing (true) Bearing (mag) Surface Threshold Offset Overrun Length
08 148 ft / 45 m 10,484 ft / 3,196 m 72.94° 73.23° Asphalt 492 ft / 150 m 191 ft / 58 m
26 148 ft / 45 m 10,484 ft / 3,196 m 252.96° 253.25° Asphalt 0 ft / 0 m 150 ft / 46 m

LXGB

Details ICAO LXGB (GIB)
Name Gibraltar
Region Gibralter
Timezone Europe/Gibraltar (UTC+1.0)
Stats Elevation 15 ft / 5 m (AMSL)
Location 36.151209° -5.349664°
Runways 1
Magnetic Variation 1.123° W

METAR

LXGB 130450Z AUTO 25004KT 9999 // NCD 08/02 Q1026

Decode

TAF

Not found

Destination Runways

ID Width Length Bearing (true) Bearing (mag) Surface Threshold Offset Overrun Length
27 151 ft / 46 m 5,992 ft / 1,826 m 267.56° 268.68° Asphalt 367 ft / 112 m 89 ft / 27 m
9 151 ft / 46 m 5,992 ft / 1,826 m 87.54° 88.66° Asphalt 299 ft / 91 m 52 ft / 16 m

Popular Alternatives